Aviation Digital Data Service (ADDS)

Output produced by TAFs form (0948 UTC 19 September 2014)
found at http://aviationweather.gov/adds/tafs/
 
KFMN 190527Z 1906/2006 06005KT P6SM SKC 
     FM192100 30010G20KT P6SM SKC 
     FM200000 33010KT P6SM SKC